sensor_id;sensor_type;location;lat;lon;timestamp;pressure;altitude;pressure_sealevel;temperature;humidity
54850;BME280;47660;51.334;12.396;2023-07-13T00:00:50;99879.84;;;34.12;24.88
54850;BME280;47660;51.334;12.396;2023-07-13T00:03:30;99865.31;;;34.91;25.03
54850;BME280;47660;51.334;12.396;2023-07-13T00:06:03;99870.34;;;35.04;24.13
54850;BME280;47660;51.334;12.396;2023-07-13T00:08:31;99884.63;;;34.86;25.26
54850;BME280;47660;51.334;12.396;2023-07-13T00:11:02;99885.72;;;34.90;24.97
54850;BME280;47660;51.334;12.396;2023-07-13T00:13:30;99893.44;;;34.88;25.04
54850;BME280;47660;51.334;12.396;2023-07-13T00:16:09;99895.00;;;34.58;25.17
54850;BME280;47660;51.334;12.396;2023-07-13T00:18:38;99910.97;;;33.75;25.12
54850;BME280;47660;51.334;12.396;2023-07-13T00:21:22;99904.94;;;35.48;24.18
54850;BME280;47660;51.334;12.396;2023-07-13T00:23:59;99914.84;;;34.12;25.51
54850;BME280;47660;51.334;12.396;2023-07-13T00:26:28;99921.09;;;34.40;25.30
54850;BME280;47660;51.334;12.396;2023-07-13T00:28:54;99919.28;;;34.13;25.45
54850;BME280;47660;51.334;12.396;2023-07-13T00:31:19;99921.63;;;34.36;25.23
54850;BME280;47660;51.334;12.396;2023-07-13T00:33:45;99923.13;;;34.55;25.38
54850;BME280;47660;51.334;12.396;2023-07-13T00:36:16;99919.69;;;34.95;25.09
54850;BME280;47660;51.334;12.396;2023-07-13T00:38:45;99930.06;;;34.14;25.60
54850;BME280;47660;51.334;12.396;2023-07-13T00:41:10;99927.31;;;34.62;25.08
54850;BME280;47660;51.334;12.396;2023-07-13T00:43:36;99927.41;;;34.35;25.41
54850;BME280;47660;51.334;12.396;2023-07-13T00:48:37;99944.69;;;34.20;25.45
54850;BME280;47660;51.334;12.396;2023-07-13T00:51:07;99957.63;;;33.27;25.71
54850;BME280;47660;51.334;12.396;2023-07-13T00:53:36;99935.97;;;34.87;24.83
54850;BME280;47660;51.334;12.396;2023-07-13T00:56:05;99944.53;;;33.67;25.70
54850;BME280;47660;51.334;12.396;2023-07-13T00:58:34;99952.16;;;34.62;25.16
54850;BME280;47660;51.334;12.396;2023-07-13T01:01:00;99944.59;;;34.04;25.27
54850;BME280;47660;51.334;12.396;2023-07-13T01:03:31;99951.19;;;33.71;26.10
54850;BME280;47660;51.334;12.396;2023-07-13T01:06:03;99950.34;;;32.93;26.41
54850;BME280;47660;51.334;12.396;2023-07-13T01:08:36;99938.50;;;33.15;26.14
54850;BME280;47660;51.334;12.396;2023-07-13T01:11:10;99947.66;;;34.08;26.67
54850;BME280;47660;51.334;12.396;2023-07-13T01:13:44;99944.56;;;33.39;27.04
54850;BME280;47660;51.334;12.396;2023-07-13T01:16:24;99940.34;;;33.91;26.75
54850;BME280;47660;51.334;12.396;2023-07-13T01:19:00;99946.63;;;33.04;27.75
54850;BME280;47660;51.334;12.396;2023-07-13T01:21:32;99938.66;;;33.08;27.71
54850;BME280;47660;51.334;12.396;2023-07-13T01:23:58;99931.75;;;32.83;27.87
54850;BME280;47660;51.334;12.396;2023-07-13T01:26:23;99933.63;;;31.24;30.00
54850;BME280;47660;51.334;12.396;2023-07-13T01:28:52;99942.88;;;32.49;28.44
54850;BME280;47660;51.334;12.396;2023-07-13T01:31:17;99958.31;;;30.71;30.57
54850;BME280;47660;51.334;12.396;2023-07-13T01:33:43;99945.75;;;31.57;29.65
54850;BME280;47660;51.334;12.396;2023-07-13T01:36:15;99944.47;;;32.84;28.70
54850;BME280;47660;51.334;12.396;2023-07-13T01:38:49;99952.03;;;32.77;28.20
54850;BME280;47660;51.334;12.396;2023-07-13T01:41:14;99955.44;;;32.28;28.64
54850;BME280;47660;51.334;12.396;2023-07-13T01:43:40;99947.00;;;31.78;29.50
54850;BME280;47660;51.334;12.396;2023-07-13T01:46:07;99951.47;;;31.84;29.23
54850;BME280;47660;51.334;12.396;2023-07-13T01:48:35;99950.41;;;32.37;28.72
54850;BME280;47660;51.334;12.396;2023-07-13T01:51:03;99943.06;;;32.65;28.47
54850;BME280;47660;51.334;12.396;2023-07-13T01:53:31;99951.56;;;31.90;29.20
54850;BME280;47660;51.334;12.396;2023-07-13T01:55:59;99956.72;;;32.20;29.00
54850;BME280;47660;51.334;12.396;2023-07-13T01:58:26;99948.72;;;32.75;28.93
54850;BME280;47660;51.334;12.396;2023-07-13T02:00:58;99950.03;;;32.16;29.00
54850;BME280;47660;51.334;12.396;2023-07-13T02:03:23;99949.03;;;31.42;30.04
54850;BME280;47660;51.334;12.396;2023-07-13T02:05:52;99954.72;;;32.33;29.13
54850;BME280;47660;51.334;12.396;2023-07-13T02:08:17;99949.34;;;32.82;28.62
54850;BME280;47660;51.334;12.396;2023-07-13T02:10:43;99951.38;;;32.48;28.85
54850;BME280;47660;51.334;12.396;2023-07-13T02:13:11;99954.19;;;32.53;28.67
54850;BME280;47660;51.334;12.396;2023-07-13T02:15:40;99951.34;;;33.59;28.24
54850;BME280;47660;51.334;12.396;2023-07-13T02:18:09;99944.41;;;32.62;29.05
54850;BME280;47660;51.334;12.396;2023-07-13T02:20:40;99947.16;;;33.29;28.38
54850;BME280;47660;51.334;12.396;2023-07-13T02:23:06;99956.69;;;32.77;28.37
54850;BME280;47660;51.334;12.396;2023-07-13T02:25:31;99956.16;;;32.74;28.30
54850;BME280;47660;51.334;12.396;2023-07-13T02:27:59;99954.00;;;32.99;28.24
54850;BME280;47660;51.334;12.396;2023-07-13T02:30:27;99964.41;;;33.19;29.03
54850;BME280;47660;51.334;12.396;2023-07-13T02:32:57;99967.63;;;32.88;28.86
54850;BME280;47660;51.334;12.396;2023-07-13T02:35:25;99968.47;;;32.72;28.91
54850;BME280;47660;51.334;12.396;2023-07-13T02:37:53;99958.56;;;32.71;28.60
54850;BME280;47660;51.334;12.396;2023-07-13T02:40:24;99958.56;;;31.97;29.83
54850;BME280;47660;51.334;12.396;2023-07-13T02:42:55;99969.75;;;31.33;30.68
54850;BME280;47660;51.334;12.396;2023-07-13T02:45:23;99971.72;;;31.78;30.18
54850;BME280;47660;51.334;12.396;2023-07-13T02:47:54;99964.66;;;32.17;30.71
54850;BME280;47660;51.334;12.396;2023-07-13T02:50:20;99963.75;;;31.36;31.31
54850;BME280;47660;51.334;12.396;2023-07-13T02:52:45;99964.56;;;31.94;30.30
54850;BME280;47660;51.334;12.396;2023-07-13T02:55:18;99960.06;;;31.88;30.72
54850;BME280;47660;51.334;12.396;2023-07-13T02:57:46;99958.00;;;31.95;30.60
54850;BME280;47660;51.334;12.396;2023-07-13T03:00:12;99951.50;;;32.02;30.05
54850;BME280;47660;51.334;12.396;2023-07-13T03:02:40;99946.22;;;31.83;30.77
54850;BME280;47660;51.334;12.396;2023-07-13T03:05:06;99950.63;;;31.38;31.24
54850;BME280;47660;51.334;12.396;2023-07-13T03:07:31;99953.66;;;31.53;31.10
54850;BME280;47660;51.334;12.396;2023-07-13T03:09:58;99959.06;;;31.77;30.81
54850;BME280;47660;51.334;12.396;2023-07-13T03:12:26;99959.88;;;32.12;30.81
54850;BME280;47660;51.334;12.396;2023-07-13T03:14:52;99959.44;;;31.69;31.13
54850;BME280;47660;51.334;12.396;2023-07-13T03:17:20;99963.72;;;31.19;31.60
54850;BME280;47660;51.334;12.396;2023-07-13T03:19:46;99962.69;;;31.37;31.45
54850;BME280;47660;51.334;12.396;2023-07-13T03:22:16;99975.22;;;31.33;31.96
54850;BME280;47660;51.334;12.396;2023-07-13T03:24:41;99976.56;;;30.77;32.93
54850;BME280;47660;51.334;12.396;2023-07-13T03:27:06;99976.22;;;31.55;31.54
54850;BME280;47660;51.334;12.396;2023-07-13T03:29:35;99996.09;;;30.21;33.59
54850;BME280;47660;51.334;12.396;2023-07-13T03:32:01;99985.28;;;30.74;33.20
54850;BME280;47660;51.334;12.396;2023-07-13T03:34:32;99990.25;;;30.89;33.21
54850;BME280;47660;51.334;12.396;2023-07-13T03:36:57;99983.88;;;31.12;32.51
54850;BME280;47660;51.334;12.396;2023-07-13T03:39:25;99984.38;;;30.97;32.58
54850;BME280;47660;51.334;12.396;2023-07-13T03:41:56;99988.53;;;31.99;31.92
54850;BME280;47660;51.334;12.396;2023-07-13T03:44:24;99990.78;;;31.27;32.25
54850;BME280;47660;51.334;12.396;2023-07-13T03:46:49;100001.00;;;30.43;33.49
54850;BME280;47660;51.334;12.396;2023-07-13T03:49:17;100007.59;;;30.78;32.98
54850;BME280;47660;51.334;12.396;2023-07-13T03:51:43;100005.16;;;31.17;32.62
54850;BME280;47660;51.334;12.396;2023-07-13T03:54:11;100000.34;;;31.82;32.29
54850;BME280;47660;51.334;12.396;2023-07-13T03:56:42;99994.34;;;30.75;33.37
54850;BME280;47660;51.334;12.396;2023-07-13T03:59:10;100007.56;;;30.90;33.32
54850;BME280;47660;51.334;12.396;2023-07-13T04:01:38;100006.03;;;30.82;33.25
54850;BME280;47660;51.334;12.396;2023-07-13T04:04:09;100004.38;;;31.63;33.05
54850;BME280;47660;51.334;12.396;2023-07-13T04:06:34;100015.66;;;30.96;33.51
54850;BME280;47660;51.334;12.396;2023-07-13T04:09:03;100010.88;;;31.16;33.55
54850;BME280;47660;51.334;12.396;2023-07-13T04:11:31;100016.72;;;31.19;33.32
54850;BME280;47660;51.334;12.396;2023-07-13T04:14:01;100022.09;;;31.02;33.74
54850;BME280;47660;51.334;12.396;2023-07-13T04:16:29;100022.06;;;31.26;33.25
54850;BME280;47660;51.334;12.396;2023-07-13T04:19:04;100025.88;;;31.25;33.71
54850;BME280;47660;51.334;12.396;2023-07-13T04:21:30;100018.75;;;31.53;33.27
54850;BME280;47660;51.334;12.396;2023-07-13T04:24:02;100031.03;;;30.38;34.46
54850;BME280;47660;51.334;12.396;2023-07-13T04:26:28;100025.72;;;31.32;33.31
54850;BME280;47660;51.334;12.396;2023-07-13T04:28:54;100026.47;;;31.27;33.37
54850;BME280;47660;51.334;12.396;2023-07-13T04:31:21;100025.06;;;31.01;33.80
54850;BME280;47660;51.334;12.396;2023-07-13T04:33:50;100014.66;;;31.84;33.59
54850;BME280;47660;51.334;12.396;2023-07-13T04:36:18;100019.63;;;31.70;32.71
54850;BME280;47660;51.334;12.396;2023-07-13T04:38:46;100007.38;;;32.41;32.55
54850;BME280;47660;51.334;12.396;2023-07-13T04:41:18;100011.34;;;32.85;31.64
54850;BME280;47660;51.334;12.396;2023-07-13T04:43:49;100018.75;;;32.45;31.81
54850;BME280;47660;51.334;12.396;2023-07-13T04:46:17;100012.59;;;32.09;32.60
54850;BME280;47660;51.334;12.396;2023-07-13T04:48:44;100019.00;;;31.80;32.46
54850;BME280;47660;51.334;12.396;2023-07-13T04:51:12;100021.84;;;31.27;33.44
54850;BME280;47660;51.334;12.396;2023-07-13T04:53:37;100025.06;;;31.01;33.94
54850;BME280;47660;51.334;12.396;2023-07-13T04:56:03;100025.22;;;31.47;33.40
54850;BME280;47660;51.334;12.396;2023-07-13T04:58:34;100019.56;;;32.45;33.00
54850;BME280;47660;51.334;12.396;2023-07-13T05:01:04;100018.47;;;32.12;33.32
54850;BME280;47660;51.334;12.396;2023-07-13T05:03:30;100020.81;;;32.38;32.07
54850;BME280;47660;51.334;12.396;2023-07-13T05:06:03;100019.69;;;32.73;32.50
54850;BME280;47660;51.334;12.396;2023-07-13T05:08:29;100020.34;;;32.80;31.34
54850;BME280;47660;51.334;12.396;2023-07-13T05:11:00;100025.25;;;32.39;32.30
54850;BME280;47660;51.334;12.396;2023-07-13T05:13:25;100014.16;;;32.34;31.90
54850;BME280;47660;51.334;12.396;2023-07-13T05:16:02;100022.25;;;33.19;30.96
54850;BME280;47660;51.334;12.396;2023-07-13T05:18:31;100018.78;;;32.67;32.55
54850;BME280;47660;51.334;12.396;2023-07-13T05:21:02;100023.03;;;33.64;30.64
54850;BME280;47660;51.334;12.396;2023-07-13T05:23:33;100020.66;;;33.45;30.92
54850;BME280;47660;51.334;12.396;2023-07-13T05:26:05;100026.53;;;32.87;31.33
54850;BME280;47660;51.334;12.396;2023-07-13T05:28:31;100023.56;;;32.94;31.68
54850;BME280;47660;51.334;12.396;2023-07-13T05:30:59;100026.16;;;33.23;31.39
54850;BME280;47660;51.334;12.396;2023-07-13T05:33:28;100030.50;;;33.63;30.00
54850;BME280;47660;51.334;12.396;2023-07-13T05:35:58;100041.03;;;33.94;30.51
54850;BME280;47660;51.334;12.396;2023-07-13T05:38:29;100042.22;;;32.19;32.03
54850;BME280;47660;51.334;12.396;2023-07-13T05:40:56;100045.03;;;33.37;30.37
54850;BME280;47660;51.334;12.396;2023-07-13T05:43:25;100047.41;;;33.50;31.24
54850;BME280;47660;51.334;12.396;2023-07-13T05:45:53;100041.81;;;34.22;30.32
54850;BME280;47660;51.334;12.396;2023-07-13T05:48:21;100042.31;;;32.58;31.07
54850;BME280;47660;51.334;12.396;2023-07-13T05:50:52;100032.78;;;33.05;30.66
54850;BME280;47660;51.334;12.396;2023-07-13T05:53:25;100042.75;;;33.78;30.57
54850;BME280;47660;51.334;12.396;2023-07-13T05:55:54;100047.34;;;33.95;30.34
54850;BME280;47660;51.334;12.396;2023-07-13T05:58:20;100032.50;;;33.73;30.22
54850;BME280;47660;51.334;12.396;2023-07-13T06:00:58;100047.69;;;33.76;30.12
54850;BME280;47660;51.334;12.396;2023-07-13T06:03:24;100050.69;;;33.97;29.42
54850;BME280;47660;51.334;12.396;2023-07-13T06:06:01;100042.13;;;34.63;28.88
54850;BME280;47660;51.334;12.396;2023-07-13T06:08:27;100046.63;;;33.32;30.50
54850;BME280;47660;51.334;12.396;2023-07-13T06:11:01;100046.91;;;34.78;29.53
54850;BME280;47660;51.334;12.396;2023-07-13T06:13:30;100051.81;;;33.73;29.69
54850;BME280;47660;51.334;12.396;2023-07-13T06:16:00;100057.38;;;33.78;29.54
54850;BME280;47660;51.334;12.396;2023-07-13T06:18:29;100051.63;;;33.58;29.68
54850;BME280;47660;51.334;12.396;2023-07-13T06:21:05;100052.75;;;34.44;29.41
54850;BME280;47660;51.334;12.396;2023-07-13T06:23:32;100051.69;;;33.90;28.96
54850;BME280;47660;51.334;12.396;2023-07-13T06:26:01;100056.38;;;33.90;29.90
54850;BME280;47660;51.334;12.396;2023-07-13T06:28:26;100063.47;;;32.74;31.04
54850;BME280;47660;51.334;12.396;2023-07-13T06:31:13;100066.34;;;33.41;30.22
54850;BME280;47660;51.334;12.396;2023-07-13T06:33:41;100062.38;;;33.82;29.63
54850;BME280;47660;51.334;12.396;2023-07-13T06:36:07;100070.22;;;32.67;31.01
54850;BME280;47660;51.334;12.396;2023-07-13T06:38:39;100061.06;;;34.17;29.65
54850;BME280;47660;51.334;12.396;2023-07-13T06:41:06;100066.16;;;33.09;31.22
54850;BME280;47660;51.334;12.396;2023-07-13T06:43:34;100064.16;;;33.43;30.11
54850;BME280;47660;51.334;12.396;2023-07-13T06:46:03;100069.97;;;33.97;30.28
54850;BME280;47660;51.334;12.396;2023-07-13T06:48:40;100066.97;;;35.01;29.09
54850;BME280;47660;51.334;12.396;2023-07-13T06:51:11;100072.78;;;33.52;28.72
54850;BME280;47660;51.334;12.396;2023-07-13T06:53:39;100073.34;;;33.10;29.13
54850;BME280;47660;51.334;12.396;2023-07-13T06:56:04;100080.44;;;34.55;28.30
54850;BME280;47660;51.334;12.396;2023-07-13T06:58:42;100072.53;;;34.03;28.12
54850;BME280;47660;51.334;12.396;2023-07-13T07:01:14;100082.88;;;33.91;27.61
54850;BME280;47660;51.334;12.396;2023-07-13T07:03:39;100078.75;;;34.21;26.63
54850;BME280;47660;51.334;12.396;2023-07-13T07:06:20;100077.84;;;34.80;26.44
54850;BME280;47660;51.334;12.396;2023-07-13T07:08:51;100079.09;;;35.00;25.97
54850;BME280;47660;51.334;12.396;2023-07-13T07:11:32;100078.97;;;35.33;26.23
54850;BME280;47660;51.334;12.396;2023-07-13T07:14:07;100086.94;;;34.11;28.37
54850;BME280;47660;51.334;12.396;2023-07-13T07:16:51;100086.00;;;34.60;27.68
54850;BME280;47660;51.334;12.396;2023-07-13T07:19:27;100083.22;;;35.51;26.10
54850;BME280;47660;51.334;12.396;2023-07-13T07:22:01;100082.59;;;34.85;27.09
54850;BME280;47660;51.334;12.396;2023-07-13T07:24:32;100093.91;;;35.42;26.36
54850;BME280;47660;51.334;12.396;2023-07-13T07:27:42;100095.88;;;34.50;26.63
54850;BME280;47660;51.334;12.396;2023-07-13T07:30:18;100093.19;;;34.01;28.25
54850;BME280;47660;51.334;12.396;2023-07-13T07:32:49;100100.66;;;34.05;27.57
54850;BME280;47660;51.334;12.396;2023-07-13T07:35:15;100100.34;;;32.91;29.02
54850;BME280;47660;51.334;12.396;2023-07-13T07:37:44;100097.69;;;33.85;28.16
54850;BME280;47660;51.334;12.396;2023-07-13T07:40:19;100098.88;;;34.87;27.50
54850;BME280;47660;51.334;12.396;2023-07-13T07:42:47;100104.44;;;36.61;25.40
54850;BME280;47660;51.334;12.396;2023-07-13T07:45:22;100106.00;;;35.89;26.41
54850;BME280;47660;51.334;12.396;2023-07-13T07:47:51;100100.94;;;35.55;26.34
54850;BME280;47660;51.334;12.396;2023-07-13T07:50:23;100106.88;;;36.10;25.30
54850;BME280;47660;51.334;12.396;2023-07-13T07:52:54;100102.94;;;35.96;25.24
54850;BME280;47660;51.334;12.396;2023-07-13T07:55:24;100098.03;;;36.45;25.03
54850;BME280;47660;51.334;12.396;2023-07-13T07:57:58;100103.22;;;37.19;24.31
54850;BME280;47660;51.334;12.396;2023-07-13T08:00:33;100105.84;;;34.57;26.52
54850;BME280;47660;51.334;12.396;2023-07-13T08:03:18;100097.88;;;33.78;26.94
54850;BME280;47660;51.334;12.396;2023-07-13T08:05:43;100107.97;;;32.54;27.64
54850;BME280;47660;51.334;12.396;2023-07-13T08:08:15;100099.38;;;34.13;26.94
54850;BME280;47660;51.334;12.396;2023-07-13T08:10:46;100095.63;;;33.08;27.33
54850;BME280;47660;51.334;12.396;2023-07-13T08:13:29;100109.50;;;33.58;26.76
54850;BME280;47660;51.334;12.396;2023-07-13T08:16:06;100107.75;;;34.56;26.31
54850;BME280;47660;51.334;12.396;2023-07-13T08:18:43;100104.66;;;33.26;26.97
54850;BME280;47660;51.334;12.396;2023-07-13T08:21:37;100109.09;;;34.48;25.76
54850;BME280;47660;51.334;12.396;2023-07-13T08:24:16;100104.03;;;35.10;25.16
54850;BME280;47660;51.334;12.396;2023-07-13T08:26:50;100100.28;;;35.43;24.57
54850;BME280;47660;51.334;12.396;2023-07-13T08:29:27;100109.31;;;35.91;23.95
54850;BME280;47660;51.334;12.396;2023-07-13T08:32:02;100103.31;;;36.46;24.64
54850;BME280;47660;51.334;12.396;2023-07-13T08:34:30;100097.19;;;36.03;24.48
54850;BME280;47660;51.334;12.396;2023-07-13T08:37:02;100106.16;;;35.51;24.50
54850;BME280;47660;51.334;12.396;2023-07-13T08:39:38;100103.84;;;36.33;24.19
54850;BME280;47660;51.334;12.396;2023-07-13T08:42:14;100097.19;;;34.15;25.57
54850;BME280;47660;51.334;12.396;2023-07-13T08:53:57;100106.84;;;33.90;26.09
54850;BME280;47660;51.334;12.396;2023-07-13T08:56:32;100105.44;;;35.87;24.69
54850;BME280;47660;51.334;12.396;2023-07-13T08:59:21;100098.59;;;36.67;23.18
54850;BME280;47660;51.334;12.396;2023-07-13T09:10:45;100106.66;;;34.57;24.97
54850;BME280;47660;51.334;12.396;2023-07-13T09:13:29;100101.63;;;35.98;23.28
54850;BME280;47660;51.334;12.396;2023-07-13T09:16:12;100083.22;;;37.27;22.54
54850;BME280;47660;51.334;12.396;2023-07-13T09:18:45;100093.59;;;36.12;23.23
54850;BME280;47660;51.334;12.396;2023-07-13T09:23:52;100106.34;;;36.19;23.47
54850;BME280;47660;51.334;12.396;2023-07-13T09:26:32;100106.47;;;35.55;24.25
54850;BME280;47660;51.334;12.396;2023-07-13T09:29:26;100096.97;;;36.51;23.15
54850;BME280;47660;51.334;12.396;2023-07-13T09:32:01;100105.66;;;34.69;24.83
54850;BME280;47660;51.334;12.396;2023-07-13T09:34:33;100093.56;;;36.95;22.82
54850;BME280;47660;51.334;12.396;2023-07-13T09:37:30;100090.81;;;37.00;22.10
54850;BME280;47660;51.334;12.396;2023-07-13T09:40:10;100093.72;;;37.51;21.46
54850;BME280;47660;51.334;12.396;2023-07-13T09:42:45;100088.41;;;37.54;21.58
54850;BME280;47660;51.334;12.396;2023-07-13T09:45:36;100095.50;;;37.76;21.29
54850;BME280;47660;51.334;12.396;2023-07-13T09:48:17;100098.59;;;36.47;22.34
54850;BME280;47660;51.334;12.396;2023-07-13T09:50:46;100105.53;;;36.65;22.06
54850;BME280;47660;51.334;12.396;2023-07-13T09:53:22;100103.50;;;37.17;21.67
54850;BME280;47660;51.334;12.396;2023-07-13T09:56:02;100107.34;;;35.18;23.64
54850;BME280;47660;51.334;12.396;2023-07-13T09:58:37;100107.53;;;35.01;23.71
54850;BME280;47660;51.334;12.396;2023-07-13T10:01:05;100107.34;;;35.71;22.82
54850;BME280;47660;51.334;12.396;2023-07-13T10:03:39;100108.19;;;35.87;23.41
54850;BME280;47660;51.334;12.396;2023-07-13T10:06:16;100108.44;;;35.70;23.30
54850;BME280;47660;51.334;12.396;2023-07-13T10:08:49;100112.25;;;34.68;25.20
54850;BME280;47660;51.334;12.396;2023-07-13T10:11:21;100119.88;;;35.41;24.02
54850;BME280;47660;51.334;12.396;2023-07-13T10:14:13;100116.31;;;36.25;23.14
54850;BME280;47660;51.334;12.396;2023-07-13T10:16:59;100119.66;;;36.58;22.44
54850;BME280;47660;51.334;12.396;2023-07-13T10:19:32;100113.19;;;35.90;23.47
54850;BME280;47660;51.334;12.396;2023-07-13T10:25:00;100107.19;;;36.97;21.92
54850;BME280;47660;51.334;12.396;2023-07-13T10:27:34;100105.22;;;37.03;21.36
54850;BME280;47660;51.334;12.396;2023-07-13T10:30:24;100107.63;;;38.65;20.14
54850;BME280;47660;51.334;12.396;2023-07-13T10:33:00;100120.16;;;37.12;21.88
54850;BME280;47660;51.334;12.396;2023-07-13T10:35:34;100102.06;;;37.35;22.19
54850;BME280;47660;51.334;12.396;2023-07-13T10:38:10;100124.22;;;35.85;24.38
54850;BME280;47660;51.334;12.396;2023-07-13T10:41:10;100135.13;;;35.44;24.56
54850;BME280;47660;51.334;12.396;2023-07-13T10:43:52;100124.00;;;36.02;24.39
54850;BME280;47660;51.334;12.396;2023-07-13T10:46:43;100128.81;;;36.53;23.64
54850;BME280;47660;51.334;12.396;2023-07-13T10:49:17;100128.09;;;35.84;24.35
54850;BME280;47660;51.334;12.396;2023-07-13T10:51:49;100116.66;;;35.01;24.88
54850;BME280;47660;51.334;12.396;2023-07-13T10:54:30;100118.47;;;37.82;22.68
54850;BME280;47660;51.334;12.396;2023-07-13T10:59:42;100116.88;;;36.74;23.38
54850;BME280;47660;51.334;12.396;2023-07-13T11:02:31;100117.91;;;37.24;22.21
54850;BME280;47660;51.334;12.396;2023-07-13T11:08:20;100122.97;;;36.55;22.47
54850;BME280;47660;51.334;12.396;2023-07-13T11:10:54;100123.28;;;36.48;22.43
54850;BME280;47660;51.334;12.396;2023-07-13T11:16:32;100119.34;;;36.44;21.48
54850;BME280;47660;51.334;12.396;2023-07-13T11:21:28;100109.66;;;36.16;21.17
54850;BME280;47660;51.334;12.396;2023-07-13T11:29:32;100102.38;;;35.94;21.79
54850;BME280;47660;51.334;12.396;2023-07-13T11:32:21;100102.72;;;36.13;21.43
54850;BME280;47660;51.334;12.396;2023-07-13T11:34:57;100100.72;;;35.93;21.55
54850;BME280;47660;51.334;12.396;2023-07-13T11:37:26;100108.13;;;35.56;21.63
54850;BME280;47660;51.334;12.396;2023-07-13T11:40:03;100115.91;;;35.64;22.03
54850;BME280;47660;51.334;12.396;2023-07-13T11:42:35;100096.47;;;35.49;21.92
54850;BME280;47660;51.334;12.396;2023-07-13T11:45:21;100091.41;;;36.51;21.41
54850;BME280;47660;51.334;12.396;2023-07-13T11:47:48;100101.13;;;36.59;21.39
54850;BME280;47660;51.334;12.396;2023-07-13T11:50:24;100098.34;;;36.53;21.08
54850;BME280;47660;51.334;12.396;2023-07-13T11:52:58;100074.25;;;36.64;21.04
54850;BME280;47660;51.334;12.396;2023-07-13T11:55:38;100088.25;;;37.14;20.35
54850;BME280;47660;51.334;12.396;2023-07-13T11:58:03;100095.28;;;35.34;20.83
54850;BME280;47660;51.334;12.396;2023-07-13T12:00:33;100085.94;;;37.98;19.30
54850;BME280;47660;51.334;12.396;2023-07-13T12:03:02;100097.34;;;35.60;20.69
54850;BME280;47660;51.334;12.396;2023-07-13T12:05:33;100102.13;;;35.90;20.49
54850;BME280;47660;51.334;12.396;2023-07-13T12:08:09;100106.25;;;35.93;20.45
54850;BME280;47660;51.334;12.396;2023-07-13T12:10:37;100087.19;;;35.96;20.09
54850;BME280;47660;51.334;12.396;2023-07-13T12:13:08;100080.69;;;37.46;19.27
54850;BME280;47660;51.334;12.396;2023-07-13T12:15:45;100083.84;;;37.13;19.06
54850;BME280;47660;51.334;12.396;2023-07-13T12:18:34;100086.66;;;36.87;19.16
54850;BME280;47660;51.334;12.396;2023-07-13T12:21:16;100100.97;;;37.26;18.56
54850;BME280;47660;51.334;12.396;2023-07-13T12:23:49;100085.06;;;37.57;18.52
54850;BME280;47660;51.334;12.396;2023-07-13T12:26:21;100083.72;;;38.99;17.73
54850;BME280;47660;51.334;12.396;2023-07-13T12:28:56;100091.78;;;37.46;18.47
54850;BME280;47660;51.334;12.396;2023-07-13T12:31:36;100083.44;;;38.01;18.14
54850;BME280;47660;51.334;12.396;2023-07-13T12:34:10;100095.38;;;37.41;18.65
54850;BME280;47660;51.334;12.396;2023-07-13T12:39:38;100080.59;;;36.70;18.95
54850;BME280;47660;51.334;12.396;2023-07-13T12:42:24;100086.69;;;36.10;19.20
54850;BME280;47660;51.334;12.396;2023-07-13T12:48:02;100093.34;;;36.30;18.92
54850;BME280;47660;51.334;12.396;2023-07-13T12:50:39;100091.81;;;39.63;16.72
54850;BME280;47660;51.334;12.396;2023-07-13T12:53:19;100096.38;;;36.80;18.48
54850;BME280;47660;51.334;12.396;2023-07-13T12:55:57;100099.38;;;39.14;17.01
54850;BME280;47660;51.334;12.396;2023-07-13T12:58:40;100093.78;;;40.53;16.38
54850;BME280;47660;51.334;12.396;2023-07-13T13:01:45;100093.53;;;40.35;16.30
54850;BME280;47660;51.334;12.396;2023-07-13T13:04:17;100099.13;;;40.16;16.80
54850;BME280;47660;51.334;12.396;2023-07-13T13:07:00;100099.44;;;40.48;16.50
54850;BME280;47660;51.334;12.396;2023-07-13T13:09:40;100099.16;;;39.97;17.15
54850;BME280;47660;51.334;12.396;2023-07-13T13:12:08;100098.41;;;40.77;16.48
54850;BME280;47660;51.334;12.396;2023-07-13T13:14:42;100100.31;;;40.29;17.65
54850;BME280;47660;51.334;12.396;2023-07-13T13:17:24;100103.59;;;40.64;16.18
54850;BME280;47660;51.334;12.396;2023-07-13T13:19:55;100092.69;;;42.25;15.81
54850;BME280;47660;51.334;12.396;2023-07-13T13:22:30;100092.22;;;42.46;14.57
54850;BME280;47660;51.334;12.396;2023-07-13T13:25:03;100095.16;;;41.81;14.97
54850;BME280;47660;51.334;12.396;2023-07-13T13:27:35;100084.56;;;47.80;11.32
54850;BME280;47660;51.334;12.396;2023-07-13T13:30:05;100097.78;;;44.20;13.05
54850;BME280;47660;51.334;12.396;2023-07-13T13:32:42;100099.88;;;41.58;15.13
54850;BME280;47660;51.334;12.396;2023-07-13T13:35:20;100105.13;;;43.54;14.18
54850;BME280;47660;51.334;12.396;2023-07-13T13:37:52;100104.44;;;37.68;18.06
54850;BME280;47660;51.334;12.396;2023-07-13T13:40:27;100109.38;;;37.00;19.33
54850;BME280;47660;51.334;12.396;2023-07-13T13:43:13;100115.25;;;38.14;18.45
54850;BME280;47660;51.334;12.396;2023-07-13T13:45:45;100115.75;;;40.88;16.19
54850;BME280;47660;51.334;12.396;2023-07-13T13:48:33;100110.63;;;44.95;13.40
54850;BME280;47660;51.334;12.396;2023-07-13T13:51:00;100119.47;;;40.97;16.26
54850;BME280;47660;51.334;12.396;2023-07-13T13:53:26;100120.94;;;42.69;15.27
54850;BME280;47660;51.334;12.396;2023-07-13T13:56:00;100116.16;;;46.49;12.38
54850;BME280;47660;51.334;12.396;2023-07-13T13:58:32;100114.03;;;44.62;13.26